Аэропорт: Ухта. Ухта

ICAO: UUYH

METAR:
2013/07/19 07:30
UUYH 190730Z 00000MPS 6000 -SHRA OVC010CB 17/15 Q1006 NOSIG RMK QFE743 18250557
METAR:
2012/12/10 15:12
TAF TAF UUYH 101400Z 1015/1224 10006MPS 2000 SN BR BKN005 OVC070 650050 
      TEMPO 1015/1024 0500 FZFG OVC002